createdAt,value
2019-03-06T00:00:43.518Z,13.60
2019-03-06T00:03:12.532Z,11.90
2019-03-06T00:05:41.349Z,11.47
2019-03-06T00:08:09.956Z,11.47
2019-03-06T00:10:38.648Z,10.90
2019-03-06T00:13:07.355Z,15.70
2019-03-06T00:15:35.932Z,17.13
2019-03-06T00:18:05.237Z,14.77
2019-03-06T00:20:35.511Z,13.10
2019-03-06T00:23:04.473Z,14.87
2019-03-06T00:25:33.096Z,14.00
2019-03-06T00:28:01.676Z,11.33
2019-03-06T00:30:30.710Z,13.70
2019-03-06T00:32:59.342Z,14.17
2019-03-06T00:35:33.315Z,14.33
2019-03-06T00:38:01.969Z,14.13
2019-03-06T00:40:50.369Z,14.03
2019-03-06T00:43:19.137Z,16.27
2019-03-06T00:45:47.970Z,15.10
2019-03-06T00:48:16.619Z,14.73
2019-03-06T00:50:45.654Z,13.03
2019-03-06T00:53:14.203Z,12.53
2019-03-06T00:55:42.768Z,13.03
2019-03-06T00:58:11.426Z,13.47
2019-03-06T01:00:40.053Z,13.20
2019-03-06T01:03:09.152Z,13.07
2019-03-06T01:05:37.815Z,11.23
2019-03-06T01:08:06.440Z,12.47
2019-03-06T01:10:35.048Z,12.63
2019-03-06T01:13:03.731Z,12.17
2019-03-06T01:15:32.556Z,11.77
2019-03-06T01:18:01.186Z,12.13
2019-03-06T01:20:30.053Z,12.20
2019-03-06T01:22:58.685Z,13.90
2019-03-06T01:25:27.240Z,13.60
2019-03-06T01:27:55.952Z,12.50
2019-03-06T01:30:25.994Z,11.47
2019-03-06T01:32:58.171Z,11.83
2019-03-06T01:35:46.207Z,11.97
2019-03-06T01:38:16.476Z,11.57
2019-03-06T01:40:46.722Z,12.00
2019-03-06T01:43:19.719Z,13.00
2019-03-06T01:45:48.399Z,12.30
2019-03-06T01:48:17.159Z,11.57
2019-03-06T01:50:45.818Z,12.70
2019-03-06T01:53:14.554Z,12.33
2019-03-06T01:55:43.126Z,13.40
2019-03-06T01:58:11.785Z,15.07
2019-03-06T02:00:40.780Z,13.40
2019-03-06T02:03:09.398Z,14.83
2019-03-06T02:05:37.998Z,15.37
2019-03-06T02:08:07.021Z,13.27
2019-03-06T02:10:35.643Z,14.53
2019-03-06T02:13:05.379Z,13.37
2019-03-06T02:15:33.943Z,13.10
2019-03-06T02:18:02.574Z,11.73
2019-03-06T02:20:31.238Z,9.80
2019-03-06T02:22:59.860Z,8.97
2019-03-06T02:25:28.676Z,11.27
2019-03-06T02:27:57.265Z,10.47
2019-03-06T02:30:26.602Z,8.73
2019-03-06T02:32:55.322Z,9.90
2019-03-06T02:35:23.979Z,13.20
2019-03-06T02:37:52.831Z,21.73
2019-03-06T02:40:21.457Z,16.70
2019-03-06T02:42:50.062Z,12.27
2019-03-06T02:45:20.727Z,11.77
2019-03-06T02:47:49.466Z,10.40
2019-03-06T02:50:19.226Z,10.27
2019-03-06T02:52:47.832Z,10.27
2019-03-06T02:55:17.767Z,10.33
2019-03-06T02:57:57.266Z,8.90
2019-03-06T03:00:45.672Z,8.90
2019-03-06T03:03:18.680Z,10.07
2019-03-06T03:05:48.929Z,8.53
2019-03-06T03:08:17.553Z,8.87
2019-03-06T03:10:46.490Z,7.93
2019-03-06T03:13:15.118Z,8.60
2019-03-06T03:15:43.739Z,7.83
2019-03-06T03:18:12.396Z,9.87
2019-03-06T03:20:41.011Z,10.70
2019-03-06T03:23:10.110Z,8.33
2019-03-06T03:25:38.771Z,7.47
2019-03-06T03:28:07.488Z,8.10
2019-03-06T03:30:36.114Z,8.17
2019-03-06T03:33:04.877Z,7.40
2019-03-06T03:35:33.527Z,8.40
2019-03-06T03:38:02.099Z,8.70
2019-03-06T03:40:30.695Z,7.50
2019-03-06T03:42:59.392Z,7.50
2019-03-06T03:45:28.013Z,8.17
2019-03-06T03:47:56.776Z,7.73
2019-03-06T03:50:25.821Z,8.80
2019-03-06T03:52:54.443Z,8.00
2019-03-06T03:55:23.111Z,7.63
2019-03-06T03:57:51.655Z,7.63
2019-03-06T04:00:24.355Z,7.50
2019-03-06T04:02:53.298Z,7.50
2019-03-06T04:05:21.846Z,7.97
2019-03-06T04:07:50.342Z,7.30
2019-03-06T04:10:19.009Z,6.90
2019-03-06T04:12:47.646Z,7.80
2019-03-06T04:15:17.874Z,8.43
2019-03-06T04:17:46.516Z,8.37
2019-03-06T04:20:16.381Z,11.53
2019-03-06T04:22:45.104Z,12.17
2019-03-06T04:25:14.216Z,10.30
2019-03-06T04:27:43.754Z,12.80
2019-03-06T04:30:19.478Z,12.83
2019-03-06T04:32:48.078Z,12.83
2019-03-06T04:35:19.574Z,11.83
2019-03-06T04:37:48.248Z,12.03
2019-03-06T04:40:17.347Z,11.27
2019-03-06T04:42:46.014Z,11.43
2019-03-06T04:45:16.749Z,16.90
2019-03-06T04:47:45.659Z,15.03
2019-03-06T04:50:15.087Z,10.70
2019-03-06T04:52:43.937Z,11.07
2019-03-06T04:55:13.967Z,9.67
2019-03-06T04:57:42.531Z,10.43
2019-03-06T05:00:19.105Z,10.57
2019-03-06T05:02:47.739Z,11.07
2019-03-06T05:05:16.572Z,10.07
2019-03-06T05:07:45.193Z,10.47
2019-03-06T05:10:14.900Z,10.83
2019-03-06T05:12:43.450Z,14.10
2019-03-06T05:15:14.421Z,14.40
2019-03-06T05:17:44.558Z,14.20
2019-03-06T05:20:13.217Z,12.97
2019-03-06T05:22:41.811Z,13.67
2019-03-06T05:25:10.437Z,14.00
2019-03-06T05:27:39.011Z,14.97
2019-03-06T05:30:15.862Z,15.30
2019-03-06T05:32:46.990Z,15.23
2019-03-06T05:35:33.436Z,17.17
2019-03-06T05:38:22.752Z,18.20
2019-03-06T05:40:51.415Z,19.43
2019-03-06T05:43:19.934Z,21.63
2019-03-06T05:45:48.733Z,19.83
2019-03-06T05:48:17.388Z,20.73
2019-03-06T05:50:46.017Z,20.87
2019-03-06T05:53:14.657Z,20.33
2019-03-06T05:55:43.244Z,20.30
2019-03-06T05:58:12.181Z,21.27
2019-03-06T06:00:40.808Z,20.67
2019-03-06T06:03:09.461Z,21.27
2019-03-06T06:05:38.025Z,20.57
2019-03-06T06:08:06.672Z,21.50
2019-03-06T06:10:35.558Z,22.10
2019-03-06T06:13:04.509Z,20.70
2019-03-06T06:15:33.135Z,21.73
2019-03-06T06:18:01.648Z,21.27
2019-03-06T06:20:30.267Z,20.83
2019-03-06T06:23:12.726Z,22.83
2019-03-06T06:25:41.289Z,21.03
2019-03-06T06:28:09.915Z,21.43
2019-03-06T06:30:39.357Z,22.77
2019-03-06T06:33:08.190Z,23.17
2019-03-06T06:35:36.886Z,23.53
2019-03-06T06:38:05.553Z,22.40
2019-03-06T06:40:35.680Z,31.27
2019-03-06T06:43:04.661Z,28.70
2019-03-06T06:45:33.613Z,25.67
2019-03-06T06:48:10.587Z,25.90
2019-03-06T06:51:00.997Z,25.43
2019-03-06T06:53:29.875Z,23.97
2019-03-06T06:56:25.715Z,24.13
2019-03-06T06:59:15.160Z,25.07
2019-03-06T07:02:03.423Z,24.47
2019-03-06T07:04:51.260Z,25.63
2019-03-06T07:07:33.280Z,24.80
2019-03-06T07:10:09.165Z,23.80
2019-03-06T07:12:42.110Z,23.50
2019-03-06T07:15:12.780Z,25.17
2019-03-06T07:17:43.046Z,24.43
2019-03-06T07:20:13.431Z,21.67
2019-03-06T07:22:43.887Z,20.90
2019-03-06T07:25:14.310Z,18.73
2019-03-06T07:27:53.431Z,17.23
2019-03-06T07:30:23.703Z,14.33
2019-03-06T07:33:11.992Z,15.50
2019-03-06T07:35:56.564Z,16.53
2019-03-06T07:38:25.678Z,14.83
2019-03-06T07:41:12.422Z,14.23
2019-03-06T07:44:01.133Z,15.10
2019-03-06T07:46:49.401Z,13.87
2019-03-06T07:49:44.822Z,11.67
2019-03-06T07:52:08.171Z,12.00
2019-03-06T07:54:44.118Z,11.90
2019-03-06T07:57:14.385Z,12.07
2019-03-06T07:59:43.291Z,10.03
2019-03-06T08:02:17.875Z,11.63
2019-03-06T08:04:54.487Z,11.27
2019-03-06T08:07:23.280Z,11.53
2019-03-06T08:09:52.015Z,11.07
2019-03-06T08:12:25.257Z,9.37
2019-03-06T08:14:55.583Z,9.33
2019-03-06T08:17:41.678Z,9.53
2019-03-06T08:20:30.256Z,9.17
2019-03-06T08:23:00.443Z,10.00
2019-03-06T08:25:47.602Z,9.50
2019-03-06T08:28:16.247Z,60.13
2019-03-06T08:30:58.516Z,10.87
2019-03-06T08:33:27.499Z,10.70
2019-03-06T08:35:56.149Z,9.40
2019-03-06T08:38:24.870Z,8.80
2019-03-06T08:40:53.440Z,10.60
2019-03-06T08:43:22.003Z,10.30
2019-03-06T08:46:08.963Z,9.43
2019-03-06T08:48:53.748Z,6.27
2019-03-06T08:51:40.270Z,5.67
2019-03-06T08:54:19.525Z,8.30
2019-03-06T08:56:52.323Z,3.90
2019-03-06T08:59:31.545Z,3.70
2019-03-06T09:02:04.779Z,4.00
2019-03-06T09:04:52.363Z,4.60
2019-03-06T09:07:22.676Z,4.70
2019-03-06T09:09:52.985Z,4.70
2019-03-06T09:12:32.335Z,5.67
2019-03-06T09:15:17.637Z,5.60
2019-03-06T09:18:09.052Z,5.73
2019-03-06T09:20:43.917Z,4.63
2019-03-06T09:23:22.576Z,5.07
2019-03-06T09:26:02.435Z,4.50
2019-03-06T09:28:32.672Z,4.37
2019-03-06T09:31:19.196Z,4.67
2019-03-06T09:34:04.496Z,4.30
2019-03-06T09:36:37.605Z,4.07
2019-03-06T09:39:26.768Z,6.13
2019-03-06T09:41:57.066Z,9.23
2019-03-06T09:44:29.922Z,5.50
2019-03-06T09:47:00.218Z,4.47
2019-03-06T09:49:30.411Z,4.40
2019-03-06T09:52:03.464Z,3.90
2019-03-06T09:54:42.894Z,4.37
2019-03-06T09:57:24.977Z,4.33
2019-03-06T09:59:55.282Z,3.50
2019-03-06T10:02:28.625Z,3.50
2019-03-06T10:05:01.458Z,3.40
2019-03-06T10:07:31.646Z,3.53
2019-03-06T10:10:18.760Z,3.03
2019-03-06T10:12:49.048Z,3.20
2019-03-06T10:15:25.553Z,3.10
2019-03-06T10:17:56.551Z,3.17
2019-03-06T10:20:25.973Z,3.50
2019-03-06T10:22:59.297Z,3.10
2019-03-06T10:25:30.122Z,3.20
2019-03-06T10:28:05.746Z,3.70
2019-03-06T10:30:26.438Z,3.73
2019-03-06T10:32:55.519Z,3.50
2019-03-06T10:35:24.234Z,3.80
2019-03-06T10:37:53.139Z,4.17
2019-03-06T10:40:21.767Z,3.40
2019-03-06T10:42:50.838Z,3.83
2019-03-06T10:45:20.009Z,4.17
2019-03-06T10:47:48.832Z,4.17
2019-03-06T10:50:26.802Z,4.00
2019-03-06T10:52:50.644Z,4.80
2019-03-06T10:55:20.209Z,4.40
2019-03-06T10:57:49.303Z,3.43
2019-03-06T11:00:31.071Z,2.97
2019-03-06T11:03:00.070Z,4.03
2019-03-06T11:05:33.473Z,4.50
2019-03-06T11:08:03.128Z,4.50
2019-03-06T11:10:33.654Z,4.40
2019-03-06T11:13:04.544Z,4.57
2019-03-06T11:15:33.609Z,4.07
2019-03-06T11:18:02.422Z,4.27
2019-03-06T11:20:36.006Z,3.97
2019-03-06T11:23:11.900Z,3.93
2019-03-06T11:25:41.337Z,4.03
2019-03-06T11:28:12.293Z,3.80
2019-03-06T11:30:47.158Z,4.30
2019-03-06T11:33:16.294Z,3.57
2019-03-06T11:35:45.720Z,3.40
2019-03-06T11:38:14.952Z,3.47
2019-03-06T11:40:43.609Z,2.60
2019-03-06T11:43:12.826Z,3.00
2019-03-06T11:45:42.490Z,2.90
2019-03-06T11:48:12.409Z,2.30
2019-03-06T11:50:41.356Z,2.50
2019-03-06T11:53:10.291Z,2.70
2019-03-06T11:55:38.921Z,2.60
2019-03-06T11:58:10.086Z,3.17
2019-03-06T12:00:42.119Z,3.20
2019-03-06T12:03:11.021Z,3.20
2019-03-06T12:05:39.962Z,3.47
2019-03-06T12:08:14.447Z,3.40
2019-03-06T12:10:43.727Z,3.13
2019-03-06T12:13:14.461Z,2.80
2019-03-06T12:15:45.450Z,3.27
2019-03-06T12:18:14.980Z,3.10
2019-03-06T12:20:43.998Z,4.17
2019-03-06T12:23:12.661Z,3.20
2019-03-06T12:25:41.989Z,3.80
2019-03-06T12:28:12.335Z,3.67
2019-03-06T12:30:41.403Z,3.40
2019-03-06T12:33:11.529Z,3.93
2019-03-06T12:35:40.156Z,3.80
2019-03-06T12:38:10.806Z,4.20
2019-03-06T12:40:40.115Z,3.70
2019-03-06T12:43:08.736Z,3.50
2019-03-06T12:45:37.805Z,3.83
2019-03-06T12:48:12.379Z,3.70
2019-03-06T12:50:41.904Z,3.90
2019-03-06T12:53:10.589Z,3.37
2019-03-06T12:55:39.293Z,3.80
2019-03-06T12:58:07.907Z,3.93
2019-03-06T13:00:37.147Z,3.07
2019-03-06T13:03:06.000Z,3.97
2019-03-06T13:05:34.728Z,3.63
2019-03-06T13:08:03.492Z,3.50
2019-03-06T13:10:32.042Z,3.03
2019-03-06T13:13:00.668Z,6.47
2019-03-06T13:15:29.593Z,3.80
2019-03-06T13:17:58.221Z,3.50
2019-03-06T13:20:26.856Z,3.40
2019-03-06T13:22:55.543Z,3.77
2019-03-06T13:25:25.280Z,3.83
2019-03-06T13:27:55.291Z,4.00
2019-03-06T13:30:26.602Z,3.67
2019-03-06T13:32:56.865Z,3.90
2019-03-06T13:35:27.080Z,4.50
2019-03-06T13:37:55.740Z,3.43
2019-03-06T13:40:24.371Z,4.33
2019-03-06T13:42:53.105Z,4.40
2019-03-06T13:45:22.086Z,4.53
2019-03-06T13:47:51.095Z,4.33
2019-03-06T13:50:19.951Z,3.60
2019-03-06T13:52:48.604Z,4.10
2019-03-06T13:55:17.921Z,4.30
2019-03-06T13:57:47.441Z,4.00
2019-03-06T14:00:25.826Z,4.10
2019-03-06T14:02:54.469Z,4.40
2019-03-06T14:05:23.939Z,4.43
2019-03-06T14:07:56.416Z,4.77
2019-03-06T14:10:26.797Z,4.40
2019-03-06T14:12:55.617Z,4.50
2019-03-06T14:15:24.947Z,5.27
2019-03-06T14:17:53.659Z,4.70
2019-03-06T14:20:25.477Z,5.00
2019-03-06T14:22:54.534Z,3.70
2019-03-06T14:25:23.945Z,4.37
2019-03-06T14:27:52.835Z,4.20
2019-03-06T14:30:29.343Z,4.37
2019-03-06T14:32:58.664Z,4.40
2019-03-06T14:35:28.503Z,4.40
2019-03-06T14:37:57.200Z,4.57
2019-03-06T14:40:33.861Z,3.73
2019-03-06T14:43:05.234Z,4.30
2019-03-06T14:45:34.268Z,4.33
2019-03-06T14:48:02.901Z,4.27
2019-03-06T14:50:31.513Z,4.23
2019-03-06T14:53:00.928Z,4.90
2019-03-06T14:55:29.539Z,5.87
2019-03-06T14:57:58.134Z,5.67
2019-03-06T15:00:26.775Z,5.60
2019-03-06T15:02:55.400Z,4.80
2019-03-06T15:05:25.365Z,4.47
2019-03-06T15:07:54.260Z,4.70
2019-03-06T15:10:23.269Z,4.73
2019-03-06T15:12:51.997Z,4.13
2019-03-06T15:15:21.429Z,5.23
2019-03-06T15:17:50.065Z,4.70
2019-03-06T15:20:23.771Z,4.33
2019-03-06T15:22:54.208Z,5.47
2019-03-06T15:25:27.659Z,5.80
2019-03-06T15:27:56.589Z,6.57
2019-03-06T15:30:25.322Z,6.10
2019-03-06T15:32:53.956Z,5.23
2019-03-06T15:35:23.402Z,7.50
2019-03-06T15:37:52.245Z,7.93
2019-03-06T15:40:31.095Z,7.20
2019-03-06T15:43:01.508Z,7.83
2019-03-06T15:45:34.045Z,8.23
2019-03-06T15:48:02.912Z,9.20
2019-03-06T15:50:31.626Z,9.20
2019-03-06T15:53:00.327Z,9.70
2019-03-06T15:55:29.915Z,9.43
2019-03-06T15:57:58.540Z,8.33
2019-03-06T16:00:45.777Z,10.73
2019-03-06T16:03:09.755Z,11.83
2019-03-06T16:05:38.561Z,13.47
2019-03-06T16:08:09.793Z,16.10
2019-03-06T16:10:39.132Z,18.17
2019-03-06T16:13:08.265Z,14.53
2019-03-06T16:15:37.650Z,13.30
2019-03-06T16:18:08.960Z,20.57
2019-03-06T16:20:38.191Z,15.77
2019-03-06T16:23:08.240Z,13.10
2019-03-06T16:25:40.019Z,16.63
2019-03-06T16:28:07.663Z,12.50
2019-03-06T16:30:36.256Z,12.90
2019-03-06T16:33:04.924Z,13.20
2019-03-06T16:35:33.585Z,16.70
2019-03-06T16:38:02.220Z,21.17
2019-03-06T16:40:31.269Z,22.07
2019-03-06T16:43:00.174Z,21.30
2019-03-06T16:45:30.213Z,23.50
2019-03-06T16:48:00.516Z,19.63
2019-03-06T16:50:29.362Z,17.03
2019-03-06T16:52:58.053Z,16.00
2019-03-06T16:55:27.622Z,13.07
2019-03-06T16:57:57.363Z,15.93
2019-03-06T17:00:31.662Z,15.43
2019-03-06T17:03:05.438Z,16.30
2019-03-06T17:05:34.413Z,15.77
2019-03-06T17:08:03.746Z,17.07
2019-03-06T17:10:34.341Z,18.60
2019-03-06T17:13:03.470Z,18.93
2019-03-06T17:15:32.773Z,17.80
2019-03-06T17:18:02.072Z,17.60
2019-03-06T17:20:37.854Z,17.70
2019-03-06T17:23:06.917Z,17.73
2019-03-06T17:25:35.979Z,28.80
2019-03-06T17:28:04.935Z,25.83
2019-03-06T17:30:37.416Z,29.13
2019-03-06T17:33:10.902Z,330.53
2019-03-06T17:35:40.447Z,379.67
2019-03-06T17:38:14.029Z,369.23
2019-03-06T17:40:43.398Z,344.90
2019-03-06T17:43:13.047Z,370.43
2019-03-06T17:45:42.377Z,141.83
2019-03-06T17:48:11.370Z,71.53
2019-03-06T17:50:40.023Z,81.67
2019-03-06T17:53:09.068Z,93.97
2019-03-06T17:55:37.747Z,147.97
2019-03-06T17:58:06.682Z,73.33
2019-03-06T18:00:40.260Z,42.67
2019-03-06T18:03:10.771Z,41.40
2019-03-06T18:05:39.487Z,34.10
2019-03-06T18:08:08.137Z,37.77
2019-03-06T18:10:36.838Z,47.87
2019-03-06T18:13:05.869Z,49.87
2019-03-06T18:15:34.506Z,44.90
2019-03-06T18:18:03.374Z,40.57
2019-03-06T18:20:31.992Z,43.47
2019-03-06T18:23:00.724Z,41.50
2019-03-06T18:25:29.327Z,40.63
2019-03-06T18:27:57.971Z,36.43
2019-03-06T18:30:27.964Z,41.90
2019-03-06T18:32:56.631Z,32.63
2019-03-06T18:35:25.301Z,32.77
2019-03-06T18:37:54.020Z,32.80
2019-03-06T18:40:24.087Z,33.73
2019-03-06T18:42:54.764Z,31.53
2019-03-06T18:45:23.440Z,29.63
2019-03-06T18:47:52.320Z,27.27
2019-03-06T18:50:24.690Z,27.80
2019-03-06T18:52:53.281Z,27.77
2019-03-06T18:55:22.271Z,26.13
2019-03-06T18:57:51.526Z,26.33
2019-03-06T19:00:33.739Z,29.10
2019-03-06T19:03:02.888Z,27.40
2019-03-06T19:05:31.532Z,27.43
2019-03-06T19:08:00.295Z,27.47
2019-03-06T19:10:28.939Z,29.00
2019-03-06T19:12:57.590Z,29.20
2019-03-06T19:15:27.480Z,30.03
2019-03-06T19:17:56.224Z,30.80
2019-03-06T19:20:25.495Z,31.50
2019-03-06T19:22:54.752Z,29.00
2019-03-06T19:25:24.187Z,31.30
2019-03-06T19:27:52.904Z,29.53
2019-03-06T19:30:27.967Z,30.33
2019-03-06T19:32:56.897Z,29.60
2019-03-06T19:35:27.806Z,29.23
2019-03-06T19:37:56.532Z,31.77
2019-03-06T19:40:25.827Z,29.97
2019-03-06T19:42:54.487Z,29.90
2019-03-06T19:45:24.529Z,31.00
2019-03-06T19:47:53.173Z,30.40
2019-03-06T19:50:25.623Z,30.00
2019-03-06T19:52:54.855Z,28.17
2019-03-06T19:55:24.123Z,26.83
2019-03-06T19:58:00.986Z,25.83
2019-03-06T20:00:31.108Z,25.70
2019-03-06T20:03:00.783Z,22.77
2019-03-06T20:05:35.237Z,22.77
2019-03-06T20:08:07.484Z,22.50
2019-03-06T20:10:36.518Z,19.93
2019-03-06T20:13:05.786Z,21.63
2019-03-06T20:15:34.417Z,23.47
2019-03-06T20:18:03.517Z,24.63
2019-03-06T20:20:32.470Z,23.30
2019-03-06T20:23:01.354Z,21.97
2019-03-06T20:25:30.138Z,21.23
2019-03-06T20:27:58.812Z,19.90
2019-03-06T20:30:27.855Z,19.80
2019-03-06T20:32:57.216Z,19.93
2019-03-06T20:35:26.544Z,18.93
2019-03-06T20:37:55.624Z,19.20
2019-03-06T20:40:24.417Z,18.23
2019-03-06T20:42:53.069Z,17.57
2019-03-06T20:45:22.181Z,16.67
2019-03-06T20:47:50.903Z,14.23
2019-03-06T20:50:20.625Z,12.90
2019-03-06T20:52:50.347Z,10.90
2019-03-06T20:55:19.420Z,11.13
2019-03-06T20:57:48.294Z,9.70
2019-03-06T21:00:19.991Z,9.20
2019-03-06T21:02:49.021Z,9.23
2019-03-06T21:05:17.909Z,10.40
2019-03-06T21:07:46.558Z,9.37
2019-03-06T21:10:17.278Z,9.73
2019-03-06T21:12:45.997Z,9.10
2019-03-06T21:15:20.224Z,9.93
2019-03-06T21:17:48.849Z,10.00
2019-03-06T21:20:21.592Z,9.80
2019-03-06T21:22:50.827Z,9.17
2019-03-06T21:25:20.457Z,9.83
2019-03-06T21:27:49.388Z,9.77
2019-03-06T21:30:29.432Z,9.63
2019-03-06T21:32:58.286Z,9.50
2019-03-06T21:35:27.072Z,9.40
2019-03-06T21:37:55.752Z,8.73
2019-03-06T21:40:24.874Z,9.30
2019-03-06T21:42:53.518Z,10.73
2019-03-06T21:45:22.356Z,11.17
2019-03-06T21:47:51.047Z,11.70
2019-03-06T21:50:20.437Z,9.53
2019-03-06T21:52:49.277Z,9.00
2019-03-06T21:55:18.214Z,9.30
2019-03-06T21:57:47.217Z,9.73
2019-03-06T22:00:20.923Z,10.30
2019-03-06T22:02:49.644Z,11.10
2019-03-06T22:05:18.390Z,11.23
2019-03-06T22:07:50.183Z,11.70
2019-03-06T22:10:18.363Z,14.60
2019-03-06T22:12:47.014Z,12.60
2019-03-06T22:15:19.500Z,11.50
2019-03-06T22:17:48.173Z,12.77
2019-03-06T22:20:17.051Z,12.83
2019-03-06T22:22:45.833Z,10.93
2019-03-06T22:25:18.171Z,10.07
2019-03-06T22:27:47.220Z,9.93
2019-03-06T22:30:22.654Z,9.47
2019-03-06T22:32:51.269Z,9.23
2019-03-06T22:35:20.105Z,9.00
2019-03-06T22:37:48.855Z,9.60
2019-03-06T22:40:19.378Z,9.50
2019-03-06T22:42:48.128Z,9.97
2019-03-06T22:45:18.334Z,10.53
2019-03-06T22:47:47.119Z,10.70
2019-03-06T22:50:16.952Z,9.73
2019-03-06T22:52:45.701Z,10.13
2019-03-06T22:55:20.934Z,10.13
2019-03-06T22:57:49.549Z,9.77
2019-03-06T23:00:29.827Z,9.20
2019-03-06T23:02:58.956Z,10.23
2019-03-06T23:05:29.700Z,10.50
2019-03-06T23:07:58.377Z,9.77
2019-03-06T23:10:27.105Z,10.10
2019-03-06T23:12:55.822Z,9.57
2019-03-06T23:15:24.527Z,10.13
2019-03-06T23:17:53.173Z,9.13
2019-03-06T23:20:21.867Z,9.60
2019-03-06T23:22:50.558Z,9.90
2019-03-06T23:25:19.086Z,11.03
2019-03-06T23:27:47.772Z,10.60
2019-03-06T23:30:17.168Z,10.63
2019-03-06T23:32:46.277Z,10.63
2019-03-06T23:35:14.911Z,10.67
2019-03-06T23:37:43.562Z,10.57
2019-03-06T23:40:12.894Z,11.37
2019-03-06T23:42:41.533Z,11.37
2019-03-06T23:45:12.204Z,10.40
2019-03-06T23:47:41.104Z,10.00
2019-03-06T23:50:11.477Z,9.13
2019-03-06T23:52:57.783Z,8.20
2019-03-06T23:55:28.052Z,8.00
2019-03-06T23:57:57.275Z,7.80
